< < Back
Terminal Aerodrome Forecast


Current Version              Previous Versions:   1  2  3  4  5  6  7  8  9  

Terminal Aerodrome Forecast

478
FTUS42 KMLB 251700
TAFMCO
TAF
KMCO 251720Z 2518/2618 34010KT P6SM FEW040
     FM260000 33002KT P6SM SKC
     FM261400 36007KT P6SM SKC=



Latest METAR

436
SAUS70 KWBC 252100 RRJ
MTRMCO
METAR KMCO 252053Z VRB06KT 10SM FEW050 27/13 A2993 RMK AO2 SLP135
T02670128 55009 $


USA.gov is the U.S. government's official web portal to all federal, state and local government web resources and services.